Time;durP1;ratioP1;P1;durP2;ratioP2;P2;SDS_P1;SDS_P2;PMS_P1;PMS_P2;Temp;Humidity;BMP_temperature;BMP_pressure;BME280_temperature;BME280_humidity;BME280_pressure;Samples;Min_cycle;Max_cycle;Signal;HPM_P1;HPM_P2
2024/01/19 00:02:16;;;;;;;14.57;7.82;;;0.20;96.60;;;;;;5037368;28;20036;-82
2024/01/19 00:04:41;;;;;;;16.83;8.10;;;0.20;96.60;;;;;;5029431;28;20036;-81
2024/01/19 00:07:07;;;;;;;13.48;7.95;;;0.20;96.60;;;;;;5038863;28;20098;-82
2024/01/19 00:09:33;;;;;;;13.85;8.40;;;0.20;96.70;;;;;;5032657;28;20057;-81
2024/01/19 00:11:58;;;;;;;13.00;8.93;;;0.20;96.70;;;;;;5032680;28;20025;-81
2024/01/19 00:14:24;;;;;;;13.82;8.65;;;0.20;96.70;;;;;;5030413;28;20639;-81
2024/01/19 00:16:50;;;;;;;14.07;8.70;;;0.10;96.70;;;;;;5036469;28;20036;-81
2024/01/19 00:19:15;;;;;;;11.85;7.93;;;0.10;96.70;;;;;;5033986;28;20040;-82
2024/01/19 00:21:45;;;;;;;13.10;8.57;;;0.10;96.70;;;;;;5038212;28;20688;-81
2024/01/19 00:24:12;;;;;;;15.48;8.93;;;0.10;96.70;;;;;;5030753;28;20054;-81
2024/01/19 00:26:38;;;;;;;13.63;9.48;;;0.10;96.70;;;;;;5031515;28;20017;-82
2024/01/19 00:29:04;;;;;;;15.45;8.63;;;0.10;96.80;;;;;;5035935;28;20546;-79
2024/01/19 00:31:29;;;;;;;15.18;9.27;;;0.00;96.70;;;;;;5034662;28;20017;-80
2024/01/19 00:33:56;;;;;;;13.18;9.18;;;0.00;96.70;;;;;;5032997;28;20466;-82
2024/01/19 00:36:22;;;;;;;14.25;9.50;;;0.00;96.80;;;;;;5031051;28;20017;-81
2024/01/19 00:38:48;;;;;;;16.30;11.07;;;0.00;96.80;;;;;;5033724;28;20029;-81
2024/01/19 00:41:13;;;;;;;16.65;11.75;;;0.00;96.80;;;;;;5032542;28;20453;-81
2024/01/19 00:43:39;;;;;;;20.95;12.00;;;0.00;96.80;;;;;;5039509;28;20494;-79
2024/01/19 00:46:05;;;;;;;19.67;12.05;;;0.00;96.80;;;;;;5033027;28;20021;-82
2024/01/19 00:48:30;;;;;;;17.23;12.05;;;0.00;96.80;;;;;;5031038;28;20228;-81
2024/01/19 00:50:56;;;;;;;18.73;12.50;;;0.00;96.90;;;;;;5032151;28;20051;-82
2024/01/19 00:53:22;;;;;;;17.83;12.18;;;-3276.70;96.80;;;;;;5034707;28;20029;-82
2024/01/19 00:55:48;;;;;;;17.08;12.18;;;-3276.70;96.90;;;;;;5034241;28;20016;-81
2024/01/19 00:58:15;;;;;;;17.92;12.52;;;-3276.70;96.90;;;;;;5036809;28;20096;-80
2024/01/19 01:00:41;;;;;;;19.50;13.00;;;-3276.70;96.90;;;;;;5035924;28;20052;-80
2024/01/19 01:03:06;;;;;;;22.98;13.60;;;-3276.70;96.90;;;;;;5031509;28;20370;-81
2024/01/19 01:05:32;;;;;;;19.33;13.48;;;-3276.70;96.90;;;;;;5036714;28;20210;-81
2024/01/19 01:07:57;;;;;;;21.25;14.57;;;-3276.70;96.90;;;;;;5034530;28;20395;-80
2024/01/19 01:10:23;;;;;;;20.65;14.00;;;-3276.70;96.90;;;;;;5033048;28;20025;-80
2024/01/19 01:12:49;;;;;;;20.85;15.88;;;-3276.70;96.90;;;;;;5033043;28;20128;-80
2024/01/19 01:15:14;;;;;;;21.85;15.23;;;-3276.70;96.90;;;;;;5038108;28;20044;-79
2024/01/19 01:17:40;;;;;;;19.73;14.60;;;-3276.60;96.80;;;;;;5035835;28;20784;-80
2024/01/19 01:20:08;;;;;;;22.52;14.18;;;-3276.60;96.90;;;;;;5034770;28;20039;-80
2024/01/19 01:22:33;;;;;;;19.85;14.15;;;-3276.60;96.90;;;;;;5028724;28;20025;-80
2024/01/19 01:24:59;;;;;;;24.48;15.15;;;-3276.60;96.90;;;;;;5026678;28;20513;-80
2024/01/19 01:27:25;;;;;;;21.58;14.68;;;-3276.50;96.90;;;;;;5035523;28;20299;-80
2024/01/19 01:29:50;;;;;;;20.92;14.27;;;-3276.50;96.80;;;;;;5026912;28;20548;-80
2024/01/19 01:32:16;;;;;;;21.65;14.38;;;-3276.50;96.80;;;;;;5031109;28;20506;-80
2024/01/19 01:34:41;;;;;;;22.00;15.43;;;-3276.50;96.90;;;;;;5024636;28;20052;-80
2024/01/19 01:37:07;;;;;;;18.55;13.40;;;-3276.50;97.00;;;;;;5034180;28;20108;-80
2024/01/19 01:39:33;;;;;;;23.30;13.82;;;-3276.50;96.90;;;;;;5034019;28;20045;-80
2024/01/19 01:41:58;;;;;;;18.20;13.80;;;-3276.40;96.90;;;;;;5026450;28;20412;-80
2024/01/19 01:44:25;;;;;;;20.67;13.90;;;-3276.40;96.90;;;;;;5030768;28;20096;-80
2024/01/19 01:46:52;;;;;;;22.83;13.40;;;-3276.30;96.90;;;;;;5033455;28;20439;-80
2024/01/19 01:49:17;;;;;;;19.33;13.35;;;-3276.30;96.90;;;;;;5029092;28;20469;-82
2024/01/19 01:51:44;;;;;;;21.33;13.63;;;-3276.30;96.90;;;;;;5028774;28;20044;-79
2024/01/19 01:54:09;;;;;;;22.23;13.55;;;-3276.30;96.90;;;;;;5029431;28;20038;-79
2024/01/19 01:56:35;;;;;;;18.90;12.77;;;-3276.20;96.90;;;;;;5031974;28;20028;-81
2024/01/19 01:59:01;;;;;;;18.50;12.95;;;-3276.20;96.90;;;;;;5028796;28;20538;-79
2024/01/19 02:01:27;;;;;;;18.90;13.30;;;-3276.20;96.90;;;;;;5035502;28;20101;-79
2024/01/19 02:03:56;;;;;;;19.63;14.95;;;-3276.20;96.90;;;;;;5036502;28;20137;-80
2024/01/19 02:06:21;;;;;;;24.98;14.40;;;-3276.20;97.00;;;;;;5033593;28;20033;-80
2024/01/19 02:08:47;;;;;;;25.63;14.40;;;-3276.20;97.00;;;;;;5035528;28;20045;-80
2024/01/19 02:11:13;;;;;;;19.98;14.85;;;-3276.20;97.00;;;;;;5039096;28;20060;-80
2024/01/19 02:13:39;;;;;;;22.52;14.50;;;-3276.20;97.00;;;;;;5039546;28;20393;-80
2024/01/19 02:16:04;;;;;;;24.80;15.23;;;-3276.20;97.00;;;;;;5035948;28;20088;-80
2024/01/19 02:18:30;;;;;;;23.85;15.00;;;-3276.20;97.00;;;;;;5030227;28;20441;-79
2024/01/19 02:20:56;;;;;;;24.55;15.23;;;-3276.20;97.00;;;;;;5032232;28;20565;-79
2024/01/19 02:23:26;;;;;;;23.38;15.85;;;-3276.20;97.00;;;;;;5034177;28;20049;-80
2024/01/19 02:25:51;;;;;;;25.92;17.05;;;-3276.20;96.90;;;;;;5034879;28;20358;-80
2024/01/19 02:28:18;;;;;;;27.65;16.98;;;-3276.20;96.90;;;;;;5031009;28;20064;-80
2024/01/19 02:30:44;;;;;;;23.30;17.50;;;-3276.20;96.80;;;;;;5035545;28;20392;-80
2024/01/19 02:33:10;;;;;;;28.15;19.02;;;-3276.10;96.90;;;;;;5034874;28;20033;-80
2024/01/19 02:35:35;;;;;;;27.83;17.45;;;-3276.10;96.80;;;;;;5035814;28;20025;-80
2024/01/19 02:38:01;;;;;;;25.52;16.52;;;-3276.10;96.90;;;;;;5032181;28;20033;-80
2024/01/19 02:40:27;;;;;;;23.25;16.77;;;-3276.10;96.90;;;;;;5038375;28;20362;-80
2024/01/19 02:42:52;;;;;;;27.48;17.15;;;-3276.10;96.90;;;;;;5030392;28;20450;-80
2024/01/19 02:45:18;;;;;;;25.85;16.63;;;-3276.20;96.90;;;;;;5039878;28;20107;-80
2024/01/19 02:47:44;;;;;;;27.00;17.10;;;-3276.20;97.00;;;;;;5028812;28;20037;-80
2024/01/19 02:50:09;;;;;;;26.17;17.77;;;-3276.20;96.90;;;;;;5040975;28;20361;-81
2024/01/19 02:52:35;;;;;;;24.60;17.60;;;-3276.20;96.90;;;;;;5036395;28;20068;-83
2024/01/19 02:55:03;;;;;;;27.88;17.00;;;-3276.20;96.90;;;;;;5031602;28;20483;-81
2024/01/19 02:57:29;;;;;;;27.20;16.92;;;-3276.20;96.80;;;;;;5034163;28;20462;-81
2024/01/19 02:59:54;;;;;;;26.50;16.83;;;-3276.20;96.90;;;;;;5034516;28;20039;-80
2024/01/19 03:02:20;;;;;;;27.70;16.67;;;-3276.20;96.80;;;;;;5031661;28;20077;-80
2024/01/19 03:04:46;;;;;;;23.50;16.23;;;-3276.10;96.80;;;;;;5030564;28;20045;-80
2024/01/19 03:07:12;;;;;;;27.70;15.80;;;-3276.10;96.80;;;;;;5035263;28;20036;-81
2024/01/19 03:09:38;;;;;;;26.90;16.55;;;-3276.20;96.80;;;;;;5033531;28;21078;-81
2024/01/19 03:12:04;;;;;;;25.35;17.33;;;-3276.10;96.70;;;;;;5034490;28;20319;-80
2024/01/19 03:14:33;;;;;;;29.23;16.05;;;-3276.20;96.80;;;;;;5033588;28;20030;-80
2024/01/19 03:16:58;;;;;;;27.55;16.88;;;-3276.20;96.70;;;;;;5035241;28;20324;-81
2024/01/19 03:19:24;;;;;;;27.73;17.40;;;-3276.20;96.80;;;;;;5034300;28;20040;-80
2024/01/19 03:21:50;;;;;;;26.65;17.67;;;-3276.20;96.70;;;;;;5033282;28;20037;-80
2024/01/19 03:24:16;;;;;;;26.95;16.60;;;-3276.20;96.60;;;;;;5033120;28;20052;-80
2024/01/19 03:26:42;;;;;;;24.15;16.38;;;-3276.20;96.60;;;;;;5039234;28;20029;-83
2024/01/19 03:29:08;;;;;;;24.17;16.38;;;-3276.20;96.60;;;;;;5046399;28;20641;-83
2024/01/19 03:31:34;;;;;;;26.45;16.70;;;-3276.20;96.60;;;;;;5045215;28;20021;-82
2024/01/19 03:34:00;;;;;;;28.58;16.65;;;-3276.20;96.50;;;;;;5044449;28;20056;-82
2024/01/19 03:36:26;;;;;;;25.63;15.98;;;-3276.10;96.50;;;;;;5040814;28;20029;-83
2024/01/19 03:38:51;;;;;;;22.83;15.85;;;-3276.10;96.50;;;;;;5042130;28;20033;-82
2024/01/19 03:41:17;;;;;;;25.15;16.35;;;-3276.10;96.50;;;;;;5050461;28;20056;-83
2024/01/19 03:43:44;;;;;;;28.42;16.80;;;-3276.20;96.50;;;;;;5046982;28;20079;-83
2024/01/19 03:46:10;;;;;;;23.50;15.60;;;-3276.20;96.50;;;;;;5037475;28;20038;-82
2024/01/19 03:48:35;;;;;;;27.05;15.60;;;-3276.20;96.40;;;;;;5035411;28;20036;-84
2024/01/19 03:51:01;;;;;;;23.10;15.63;;;-3276.20;96.40;;;;;;5032432;28;20057;-83
2024/01/19 03:53:27;;;;;;;22.33;14.93;;;-3276.20;96.30;;;;;;5033077;28;20044;-83
2024/01/19 03:55:52;;;;;;;27.08;16.05;;;-3276.10;96.20;;;;;;5036774;28;20456;-83
2024/01/19 03:58:18;;;;;;;29.23;15.98;;;-3276.10;96.10;;;;;;5033468;28;20523;-83
2024/01/19 04:00:43;;;;;;;23.85;16.10;;;-3276.10;96.20;;;;;;5032725;28;20069;-83
2024/01/19 04:03:09;;;;;;;24.92;15.73;;;-3276.10;96.10;;;;;;5030530;28;20041;-83
2024/01/19 04:05:35;;;;;;;24.23;15.15;;;-3276.10;96.00;;;;;;5035025;28;20063;-83
2024/01/19 04:08:02;;;;;;;29.05;16.60;;;-3276.00;96.00;;;;;;5033229;28;23083;-83
2024/01/19 04:10:28;;;;;;;27.83;15.32;;;-3276.00;96.00;;;;;;5037791;28;20115;-83
2024/01/19 04:12:53;;;;;;;23.48;16.45;;;-3275.90;96.00;;;;;;5029843;28;20322;-83
2024/01/19 04:15:19;;;;;;;23.55;15.95;;;-3275.90;95.90;;;;;;5035583;28;20434;-83
2024/01/19 04:17:45;;;;;;;23.15;15.70;;;-3275.80;96.00;;;;;;5028384;28;20037;-83
2024/01/19 04:20:11;;;;;;;24.40;15.85;;;-3275.80;96.00;;;;;;5033399;28;20083;-83
2024/01/19 04:22:36;;;;;;;23.77;15.80;;;-3275.80;95.90;;;;;;5036384;28;20096;-83
2024/01/19 04:25:02;;;;;;;24.55;16.60;;;-3275.70;95.90;;;;;;5036947;28;20052;-83
2024/01/19 04:27:28;;;;;;;28.15;16.38;;;-3275.70;95.90;;;;;;5027243;28;20103;-83
2024/01/19 04:29:53;;;;;;;26.95;15.77;;;-3275.60;95.90;;;;;;5032551;28;20406;-83
2024/01/19 04:32:20;;;;;;;26.02;16.33;;;-3275.60;95.90;;;;;;5033533;28;20024;-82
2024/01/19 04:34:46;;;;;;;24.33;15.52;;;-3275.60;95.90;;;;;;5033158;28;20315;-83
2024/01/19 04:37:11;;;;;;;24.50;15.90;;;-3275.60;95.80;;;;;;5032130;28;20028;-80
2024/01/19 04:39:37;;;;;;;26.15;17.70;;;-3275.60;95.70;;;;;;5035522;28;20458;-83
2024/01/19 04:42:03;;;;;;;24.35;16.67;;;-3275.50;95.70;;;;;;5037100;28;20044;-83
2024/01/19 04:44:28;;;;;;;23.70;16.95;;;-3275.50;95.70;;;;;;5035830;28;20029;-83
2024/01/19 04:46:54;;;;;;;25.08;15.93;;;-3275.50;95.60;;;;;;5033916;28;20458;-84
2024/01/19 04:49:19;;;;;;;23.35;16.67;;;-3275.50;95.60;;;;;;5031085;28;20120;-83
2024/01/19 04:51:45;;;;;;;25.70;17.50;;;-3275.50;95.60;;;;;;5034638;28;20024;-82
2024/01/19 04:54:11;;;;;;;28.05;18.10;;;-3275.40;95.60;;;;;;5031994;28;20045;-83
2024/01/19 04:56:36;;;;;;;30.35;18.73;;;-3275.40;95.70;;;;;;5035625;28;20362;-83
2024/01/19 04:59:02;;;;;;;28.65;17.70;;;-3275.50;95.70;;;;;;5034752;28;20048;-83
2024/01/19 05:01:28;;;;;;;29.75;18.27;;;-3275.50;95.80;;;;;;5030525;28;20111;-83
2024/01/19 05:03:53;;;;;;;24.20;17.63;;;-3275.50;95.70;;;;;;5028516;28;20036;-82
2024/01/19 05:06:19;;;;;;;25.67;18.30;;;-3275.50;95.70;;;;;;5049877;28;20468;-83
2024/01/19 05:08:46;;;;;;;28.92;19.27;;;-3275.50;95.60;;;;;;5033105;28;20078;-83
2024/01/19 05:11:13;;;;;;;28.27;19.00;;;-3275.50;95.60;;;;;;5049276;28;20076;-82
2024/01/19 05:13:41;;;;;;;30.02;20.10;;;-3275.50;95.50;;;;;;5034224;28;20037;-81
2024/01/19 05:16:06;;;;;;;27.63;18.65;;;-3275.40;95.50;;;;;;5035362;28;20138;-81
2024/01/19 05:18:32;;;;;;;25.85;18.33;;;-3275.40;95.50;;;;;;5032380;28;20496;-81
2024/01/19 05:20:57;;;;;;;30.77;19.58;;;-3275.40;95.50;;;;;;5029339;28;20052;-81
2024/01/19 05:23:23;;;;;;;30.42;19.88;;;-3275.30;95.50;;;;;;5029384;28;20131;-81
2024/01/19 05:25:48;;;;;;;28.85;19.80;;;-3275.40;95.50;;;;;;5032211;28;20029;-81
2024/01/19 05:28:15;;;;;;;31.33;19.80;;;-3275.30;95.50;;;;;;5031171;28;20037;-81
2024/01/19 05:30:41;;;;;;;28.55;19.48;;;-3275.30;95.50;;;;;;5027733;28;20071;-81
2024/01/19 05:33:07;;;;;;;31.73;19.88;;;-3275.30;95.50;;;;;;5033656;28;20051;-82
2024/01/19 05:35:32;;;;;;;31.30;20.90;;;-3275.30;95.50;;;;;;5030266;28;20025;-81
2024/01/19 05:37:58;;;;;;;29.98;20.30;;;-3275.40;95.50;;;;;;5029629;28;20044;-82
2024/01/19 05:40:23;;;;;;;30.95;20.88;;;-3275.40;95.60;;;;;;5034357;28;20497;-81
2024/01/19 05:42:49;;;;;;;29.90;20.67;;;-3275.40;95.60;;;;;;5033486;28;20041;-82
2024/01/19 05:45:15;;;;;;;29.83;19.92;;;-3275.30;95.60;;;;;;5035254;28;20537;-80
2024/01/19 05:47:41;;;;;;;35.03;20.65;;;-3275.30;95.50;;;;;;5033291;28;20069;-81
2024/01/19 05:50:07;;;;;;;35.28;22.35;;;-3275.30;95.50;;;;;;5034532;28;20027;-81
2024/01/19 05:52:32;;;;;;;33.00;21.23;;;-3275.30;95.60;;;;;;5039208;28;20029;-80
2024/01/19 05:54:58;;;;;;;34.33;21.35;;;-3275.30;95.50;;;;;;5032858;28;20083;-81
2024/01/19 05:57:24;;;;;;;31.98;21.70;;;-3275.30;95.50;;;;;;5032713;28;20079;-83
2024/01/19 05:59:49;;;;;;;30.48;21.95;;;-3275.20;95.40;;;;;;5034654;28;20492;-83
2024/01/19 06:02:15;;;;;;;32.03;22.63;;;-3275.20;95.40;;;;;;5031301;28;20031;-81
2024/01/19 06:04:41;;;;;;;33.03;22.48;;;-3275.20;95.50;;;;;;5033182;28;20045;-82
2024/01/19 06:07:07;;;;;;;33.08;21.90;;;-3275.20;95.40;;;;;;5037372;28;20029;-81
2024/01/19 06:09:33;;;;;;;37.97;23.98;;;-3275.10;95.40;;;;;;5030689;28;20383;-81
2024/01/19 06:11:59;;;;;;;31.30;21.50;;;-3275.20;95.50;;;;;;5035321;28;20036;-81
2024/01/19 06:14:24;;;;;;;35.90;23.90;;;-3275.10;95.40;;;;;;5032410;28;20073;-81
2024/01/19 06:16:50;;;;;;;31.35;21.50;;;-3275.10;95.50;;;;;;5034729;28;20043;-82
2024/01/19 06:19:15;;;;;;;35.53;22.50;;;-3275.10;95.40;;;;;;5039876;28;20033;-80
2024/01/19 06:21:45;;;;;;;33.22;21.80;;;-3275.10;95.50;;;;;;5035387;28;20025;-80
2024/01/19 06:24:17;;;;;;;32.22;21.58;;;-3275.10;95.50;;;;;;5034031;28;20142;-81
2024/01/19 06:26:46;;;;;;;37.17;24.05;;;-3275.10;95.40;;;;;;5036558;28;20021;-81
2024/01/19 06:29:12;;;;;;;34.95;23.55;;;-3275.10;95.40;;;;;;5024112;28;20474;-81
2024/01/19 06:31:45;;;;;;;34.47;24.23;;;-3275.10;95.50;;;;;;5031497;28;20330;-82
2024/01/19 06:34:11;;;;;;;39.35;24.83;;;-3275.10;95.50;;;;;;4994984;28;1120090;-82
2024/01/19 06:36:37;;;;;;;33.13;23.77;;;-3275.10;95.50;;;;;;5038091;28;20039;-82
2024/01/19 06:39:04;;;;;;;35.35;23.83;;;-3275.10;95.50;;;;;;5033062;28;20033;-82
2024/01/19 06:41:30;;;;;;;32.78;22.63;;;-3275.10;95.40;;;;;;5046937;28;20032;-81
2024/01/19 06:43:56;;;;;;;36.67;23.60;;;-3275.10;95.40;;;;;;5051208;28;20021;-81
2024/01/19 06:46:22;;;;;;;35.63;24.52;;;-3275.00;95.40;;;;;;5035627;28;20039;-83
2024/01/19 06:48:47;;;;;;;36.05;24.17;;;-3275.10;95.40;;;;;;5035180;28;20057;-80
2024/01/19 06:51:17;;;;;;;38.92;25.20;;;-3275.10;95.40;;;;;;5033619;28;20014;-81
2024/01/19 06:53:43;;;;;;;43.33;27.08;;;-3275.10;95.50;;;;;;5030808;28;20128;-81
2024/01/19 06:56:08;;;;;;;36.95;23.70;;;-3275.20;95.50;;;;;;5037367;28;20111;-81
2024/01/19 06:58:34;;;;;;;36.85;24.35;;;-3275.20;95.50;;;;;;5035694;28;20033;-81
2024/01/19 07:01:00;;;;;;;39.67;23.95;;;-3275.20;95.40;;;;;;5037691;28;20022;-80
2024/01/19 07:03:25;;;;;;;38.85;25.02;;;-3275.30;95.30;;;;;;5033994;28;20465;-80
2024/01/19 07:05:51;;;;;;;35.45;24.40;;;-3275.30;95.30;;;;;;5033564;28;20041;-81
2024/01/19 07:08:17;;;;;;;36.92;24.10;;;-3275.30;95.20;;;;;;5047280;28;20334;-80
2024/01/19 07:10:43;;;;;;;40.67;24.45;;;-3275.30;95.20;;;;;;5037400;28;20100;-81
2024/01/19 07:13:09;;;;;;;37.20;24.40;;;-3275.30;95.10;;;;;;5031526;28;20210;-81
2024/01/19 07:15:35;;;;;;;33.97;23.70;;;-3275.30;95.10;;;;;;5040761;28;20428;-81
2024/01/19 07:18:01;;;;;;;37.55;24.60;;;-3275.20;95.10;;;;;;5045640;28;20227;-80
2024/01/19 07:20:26;;;;;;;40.13;24.00;;;-3275.20;95.10;;;;;;5034376;28;20343;-80
2024/01/19 07:22:55;;;;;;;38.33;23.88;;;-3275.20;95.10;;;;;;5031353;28;20149;-80
2024/01/19 07:25:21;;;;;;;37.25;24.08;;;-3275.20;95.20;;;;;;5027909;28;20545;-80
2024/01/19 07:27:46;;;;;;;32.90;24.00;;;-3275.20;95.10;;;;;;5033474;28;20033;-80
2024/01/19 07:30:12;;;;;;;38.42;24.17;;;-3275.20;95.20;;;;;;5040723;28;20148;-80
2024/01/19 07:32:38;;;;;;;39.28;24.33;;;-3275.20;95.20;;;;;;5031321;28;20025;-80
2024/01/19 07:35:04;;;;;;;39.20;25.25;;;-3275.10;95.10;;;;;;5028957;28;20395;-80
2024/01/19 07:37:30;;;;;;;37.78;24.95;;;-3275.10;95.10;;;;;;5034404;28;20024;-80
2024/01/19 07:39:56;;;;;;;39.65;24.33;;;-3275.10;95.20;;;;;;5033025;28;20458;-80
2024/01/19 07:42:22;;;;;;;43.10;25.60;;;-3275.10;95.20;;;;;;5029321;28;20593;-77
2024/01/19 07:44:48;;;;;;;37.92;24.55;;;-3275.10;95.20;;;;;;5035706;28;20159;-77
2024/01/19 07:47:14;;;;;;;38.85;25.38;;;-3275.20;95.20;;;;;;5038387;28;20068;-75
2024/01/19 07:49:40;;;;;;;35.55;23.75;;;-3275.10;95.10;;;;;;5031842;28;20048;-76
2024/01/19 07:52:06;;;;;;;35.58;24.02;;;-3275.20;95.20;;;;;;5035766;28;20114;-76
2024/01/19 07:54:32;;;;;;;36.90;23.92;;;-3275.20;95.10;;;;;;5036304;28;20045;-75
2024/01/19 07:56:58;;;;;;;42.88;25.65;;;-3275.20;95.10;;;;;;5030857;28;20059;-75
2024/01/19 07:59:24;;;;;;;36.00;24.80;;;-3275.20;95.20;;;;;;5032728;28;20638;-74
2024/01/19 08:01:50;;;;;;;35.83;24.23;;;-3275.30;95.30;;;;;;5031595;28;20056;-74
2024/01/19 08:04:16;;;;;;;38.20;25.73;;;-3275.30;95.30;;;;;;5036020;28;20120;-74
2024/01/19 08:06:41;;;;;;;31.75;23.45;;;-3275.30;95.30;;;;;;5033561;28;20423;-74
2024/01/19 08:09:11;;;;;;;41.10;26.85;;;-3275.40;95.30;;;;;;5032537;28;20099;-75
2024/01/19 08:11:37;;;;;;;41.00;26.48;;;-3275.40;95.30;;;;;;5035882;28;20025;-74
2024/01/19 08:14:03;;;;;;;43.17;28.98;;;-3275.40;95.20;;;;;;5031515;28;20494;-74
2024/01/19 08:16:28;;;;;;;38.78;26.38;;;-3275.40;95.30;;;;;;5032595;28;20077;-74
2024/01/19 08:18:56;;;;;;;38.83;27.65;;;-3275.40;95.30;;;;;;5031295;28;20052;-74
2024/01/19 08:21:22;;;;;;;39.60;27.20;;;-3275.50;95.30;;;;;;5034556;28;20036;-74
2024/01/19 08:23:50;;;;;;;39.25;26.55;;;-3275.50;95.20;;;;;;5031022;28;20663;-74
2024/01/19 08:26:19;;;;;;;38.05;26.20;;;-3275.50;95.20;;;;;;5023280;28;20078;-75
2024/01/19 08:28:46;;;;;;;36.28;25.45;;;-3275.50;95.20;;;;;;5030416;28;20045;-73
2024/01/19 08:31:12;;;;;;;36.72;26.05;;;-3275.60;95.20;;;;;;5037080;28;20021;-77
2024/01/19 08:33:38;;;;;;;41.00;27.02;;;-3275.60;95.30;;;;;;5032117;28;20091;-76
2024/01/19 08:36:05;;;;;;;42.05;29.23;;;-3275.70;95.30;;;;;;5034279;28;21014;-72
2024/01/19 08:38:31;;;;;;;45.05;30.90;;;-3275.70;95.30;;;;;;5027522;28;20076;-74
2024/01/19 08:40:56;;;;;;;46.50;31.65;;;-3275.70;95.30;;;;;;5029293;28;20021;-76
2024/01/19 08:43:22;;;;;;;44.78;30.40;;;-3275.80;95.20;;;;;;5031938;28;20396;-76
2024/01/19 08:45:48;;;;;;;38.75;30.40;;;-3275.80;95.10;;;;;;5036217;28;20033;-74
2024/01/19 08:48:13;;;;;;;35.75;27.27;;;-3275.90;95.10;;;;;;5034242;28;20453;-75
2024/01/19 08:50:40;;;;;;;41.53;28.77;;;-3275.90;95.10;;;;;;5034291;28;20025;-75
2024/01/19 08:53:06;;;;;;;36.28;25.83;;;-3276.00;95.10;;;;;;5029653;28;20041;-76
2024/01/19 08:55:32;;;;;;;37.50;27.27;;;-3276.20;95.20;;;;;;5034280;28;20143;-74
2024/01/19 08:57:58;;;;;;;38.72;27.95;;;-3276.30;95.20;;;;;;5034232;28;20029;-75
2024/01/19 09:00:23;;;;;;;46.10;30.83;;;-3276.40;95.10;;;;;;5025783;28;20036;-75
2024/01/19 09:02:49;;;;;;;39.72;27.58;;;-3276.50;95.00;;;;;;5033618;28;20053;-75
2024/01/19 09:05:15;;;;;;;43.28;30.35;;;-3276.70;95.00;;;;;;5029155;28;20450;-75
2024/01/19 09:07:42;;;;;;;42.83;30.65;;;0.00;95.00;;;;;;5030384;28;20777;-74
2024/01/19 09:10:08;;;;;;;40.47;27.48;;;0.20;94.80;;;;;;5031375;28;20024;-74
2024/01/19 09:12:34;;;;;;;38.40;25.30;;;0.30;94.40;;;;;;5028165;28;20047;-75
2024/01/19 09:15:00;;;;;;;38.97;25.25;;;0.40;93.90;;;;;;5031724;28;20070;-74
2024/01/19 09:17:26;;;;;;;33.55;24.35;;;0.70;93.80;;;;;;5029301;28;20017;-74
2024/01/19 09:19:51;;;;;;;34.72;24.17;;;0.70;93.20;;;;;;5027257;28;20377;-74
2024/01/19 09:22:17;;;;;;;33.47;24.48;;;0.90;92.90;;;;;;5030548;28;20060;-74
2024/01/19 09:24:43;;;;;;;35.40;25.02;;;1.00;92.40;;;;;;5028770;28;20351;-76
2024/01/19 09:27:09;;;;;;;39.47;27.02;;;1.20;91.90;;;;;;5026773;28;20032;-75
2024/01/19 09:29:35;;;;;;;38.40;26.65;;;1.30;91.80;;;;;;5031699;28;20032;-75
2024/01/19 09:32:01;;;;;;;33.67;25.80;;;1.40;91.20;;;;;;5029800;28;20423;-75
2024/01/19 09:34:26;;;;;;;36.35;25.85;;;1.60;91.10;;;;;;5031929;28;20343;-75
2024/01/19 09:36:52;;;;;;;36.80;25.17;;;1.70;90.60;;;;;;5030737;28;20029;-75
2024/01/19 09:39:20;;;;;;;37.47;26.27;;;1.80;90.10;;;;;;5031481;28;20025;-75
2024/01/19 09:41:46;;;;;;;32.40;25.35;;;1.90;89.50;;;;;;5035810;28;20397;-75
2024/01/19 09:44:13;;;;;;;34.47;24.25;;;2.10;89.50;;;;;;5036822;28;20029;-75
2024/01/19 09:46:52;;;;;;;34.83;22.88;;;2.20;89.10;;;;;;5028205;28;20082;-76
2024/01/19 09:49:53;;;;;;;36.88;25.15;;;2.40;88.60;;;;;;5033822;28;20121;-75
2024/01/19 09:52:42;;;;;;;34.03;22.58;;;2.40;87.90;;;;;;5031904;28;20025;-73
2024/01/19 09:55:11;;;;;;;32.67;22.48;;;2.50;87.60;;;;;;5035376;28;20074;-74
2024/01/19 09:57:46;;;;;;;38.78;24.95;;;2.50;87.10;;;;;;5047223;28;20034;-74
2024/01/19 10:00:17;;;;;;;35.70;23.42;;;2.60;87.70;;;;;;5034778;28;20174;-75
2024/01/19 10:02:52;;;;;;;36.22;24.02;;;2.70;87.00;;;;;;5032131;28;20116;-73
2024/01/19 10:05:19;;;;;;;27.92;21.42;;;2.80;86.90;;;;;;5035783;28;20107;-74
2024/01/19 10:07:47;;;;;;;27.65;20.85;;;2.90;86.40;;;;;;5022302;28;20128;-78
2024/01/19 10:10:15;;;;;;;29.58;20.42;;;3.00;86.30;;;;;;5033720;28;20028;-76
2024/01/19 10:12:42;;;;;;;29.70;21.48;;;3.00;86.10;;;;;;5032996;28;20074;-74
2024/01/19 10:15:17;;;;;;;29.52;22.30;;;3.10;85.90;;;;;;5034978;28;20489;-76
2024/01/19 10:17:45;;;;;;;31.63;21.70;;;3.20;86.20;;;;;;5029251;28;20044;-78
2024/01/19 10:20:13;;;;;;;29.30;21.77;;;3.30;85.60;;;;;;5031869;28;20101;-76
2024/01/19 10:22:39;;;;;;;30.50;21.67;;;3.30;85.60;;;;;;5032038;28;20124;-75
2024/01/19 10:25:13;;;;;;;48.20;21.75;;;3.40;85.70;;;;;;5031601;28;20025;-78
2024/01/19 10:27:44;;;;;;;27.27;19.77;;;3.40;85.10;;;;;;5040518;28;20041;-77
2024/01/19 10:30:24;;;;;;;28.30;20.10;;;3.40;85.10;;;;;;5022035;28;20013;-74
2024/01/19 10:32:51;;;;;;;32.95;21.60;;;3.50;85.20;;;;;;5032400;28;20041;-75
2024/01/19 10:35:22;;;;;;;28.35;20.50;;;3.50;85.40;;;;;;5030083;28;20107;-76
2024/01/19 10:37:49;;;;;;;31.10;21.40;;;3.60;85.90;;;;;;5026942;28;20142;-77
2024/01/19 10:40:17;;;;;;;28.50;20.02;;;3.60;84.80;;;;;;5030015;28;20503;-76
2024/01/19 10:42:43;;;;;;;32.00;22.92;;;3.70;85.00;;;;;;5026421;28;20113;-76
2024/01/19 10:45:20;;;;;;;26.27;19.60;;;3.80;85.00;;;;;;5027557;28;20460;-78
2024/01/19 10:47:46;;;;;;;32.03;21.73;;;3.70;84.20;;;;;;5030068;28;20437;-76
2024/01/19 10:50:14;;;;;;;33.35;21.63;;;3.70;84.90;;;;;;5028659;28;20017;-75
2024/01/19 10:52:47;;;;;;;29.67;21.45;;;3.80;85.50;;;;;;5027907;28;20341;-80
2024/01/19 10:55:21;;;;;;;26.10;18.45;;;4.00;85.60;;;;;;5024265;28;20033;-75
2024/01/19 10:58:12;;;;;;;27.95;20.02;;;4.00;85.60;;;;;;5026648;28;20025;-77
2024/01/19 11:00:38;;;;;;;29.55;19.98;;;3.90;84.50;;;;;;5033331;28;20490;-75
2024/01/19 11:03:04;;;;;;;30.50;20.15;;;3.90;84.80;;;;;;5027487;28;20199;-74
2024/01/19 11:05:31;;;;;;;29.25;19.15;;;3.90;84.90;;;;;;5029302;28;20408;-76
2024/01/19 11:08:01;;;;;;;30.65;19.92;;;3.80;85.50;;;;;;5029077;28;20569;-75
2024/01/19 11:10:29;;;;;;;33.40;18.75;;;3.80;86.20;;;;;;5024367;28;20049;-74
2024/01/19 11:12:56;;;;;;;26.23;18.75;;;3.80;85.70;;;;;;5027991;28;20478;-76
2024/01/19 11:15:34;;;;;;;25.15;17.95;;;3.90;86.00;;;;;;5029614;28;20129;-77
2024/01/19 11:18:02;;;;;;;26.10;18.15;;;4.10;86.00;;;;;;5023110;28;20029;-74
2024/01/19 11:20:29;;;;;;;25.45;16.95;;;4.20;86.30;;;;;;5027237;28;20033;-76
2024/01/19 11:22:55;;;;;;;26.08;16.60;;;4.20;85.80;;;;;;5027683;28;20420;-76
2024/01/19 11:25:37;;;;;;;25.30;18.23;;;4.10;85.40;;;;;;5026471;28;20025;-73
2024/01/19 11:28:15;;;;;;;26.40;17.23;;;4.30;86.40;;;;;;5023890;28;20032;-73
2024/01/19 11:31:09;;;;;;;27.05;16.70;;;4.50;86.10;;;;;;5025419;28;20027;-73
2024/01/19 11:33:35;;;;;;;24.17;16.90;;;4.60;85.50;;;;;;5026999;28;20048;-72
2024/01/19 11:36:01;;;;;;;28.92;17.10;;;4.50;85.20;;;;;;5026435;28;20029;-74
2024/01/19 11:38:45;;;;;;;28.58;17.55;;;4.50;85.20;;;;;;5022085;28;20378;-72
2024/01/19 11:41:33;;;;;;;30.60;17.50;;;4.50;85.40;;;;;;5029602;28;20021;-72
2024/01/19 11:44:06;;;;;;;25.77;15.23;;;4.60;86.30;;;;;;5021512;28;20068;-77
2024/01/19 11:46:45;;;;;;;29.45;15.25;;;4.60;85.60;;;;;;5027949;28;20595;-74
2024/01/19 11:49:30;;;;;;;20.77;15.25;;;4.60;85.70;;;;;;5028384;28;20033;-77
2024/01/19 11:52:03;;;;;;;21.93;14.27;;;4.40;85.70;;;;;;5019595;28;20461;-74
2024/01/19 11:54:30;;;;;;;26.40;13.18;;;4.40;86.10;;;;;;5028028;28;20275;-74
2024/01/19 11:57:18;;;;;;;19.00;13.32;;;4.30;86.40;;;;;;5030572;28;20044;-73
2024/01/19 11:59:44;;;;;;;23.45;14.57;;;4.30;86.80;;;;;;5029675;28;20460;-74
2024/01/19 12:02:31;;;;;;;21.88;12.82;;;4.40;87.40;;;;;;5035470;28;20024;-72
2024/01/19 12:05:02;;;;;;;24.83;13.80;;;4.60;87.20;;;;;;5031311;28;20501;-75
2024/01/19 12:07:28;;;;;;;21.73;13.60;;;4.80;86.90;;;;;;5028371;28;20079;-73
2024/01/19 12:10:08;;;;;;;19.02;12.75;;;4.70;86.10;;;;;;5031989;28;20764;-74
2024/01/19 12:12:34;;;;;;;20.77;12.88;;;4.70;86.40;;;;;;5029753;28;20158;-72